createdAt,value
2023-04-02T00:01:34.431Z,4.57
2023-04-02T00:04:14.205Z,5.28
2023-04-02T00:06:45.318Z,4.03
2023-04-02T00:09:15.486Z,4.13
2023-04-02T00:11:46.533Z,3.80
2023-04-02T00:14:51.438Z,5.32
2023-04-02T00:17:21.587Z,4.68
2023-04-02T00:20:06.789Z,4.90
2023-04-02T00:22:34.151Z,4.35
2023-04-02T00:25:13.214Z,4.45
2023-04-02T00:27:41.329Z,4.32
2023-04-02T00:30:12.931Z,5.40
2023-04-02T00:32:40.606Z,4.20
2023-04-02T00:35:26.465Z,4.95
2023-04-02T00:37:54.913Z,6.45
2023-04-02T00:40:31.639Z,4.85
2023-04-02T00:43:04.278Z,3.72
2023-04-02T00:45:37.006Z,3.55
2023-04-02T00:49:22.439Z,4.72
2023-04-02T00:52:06.625Z,4.35
2023-04-02T00:54:54.052Z,4.95
2023-04-02T00:57:25.581Z,6.03
2023-04-02T01:00:15.887Z,6.10
2023-04-02T01:02:43.400Z,4.68
2023-04-02T01:05:16.625Z,4.90
2023-04-02T01:08:27.403Z,6.32
2023-04-02T01:11:51.767Z,5.68
2023-04-02T01:14:56.990Z,5.22
2023-04-02T01:18:18.366Z,4.45
2023-04-02T01:21:07.552Z,5.82
2023-04-02T01:23:59.663Z,5.75
2023-04-02T01:26:54.471Z,5.63
2023-04-02T01:29:38.439Z,4.15
2023-04-02T01:32:15.509Z,6.03
2023-04-02T01:34:47.149Z,4.68
2023-04-02T01:37:53.440Z,5.07
2023-04-02T01:41:04.082Z,5.10
2023-04-02T01:43:56.445Z,4.53
2023-04-02T01:46:33.219Z,4.32
2023-04-02T01:49:12.647Z,4.70
2023-04-02T01:51:51.219Z,5.18
2023-04-02T01:54:22.130Z,4.72
2023-04-02T01:56:51.087Z,3.80
2023-04-02T01:59:22.362Z,4.60
2023-04-02T02:02:04.765Z,4.00
2023-04-02T02:04:35.008Z,5.03
2023-04-02T02:07:04.183Z,4.93
2023-04-02T02:09:35.762Z,4.85
2023-04-02T02:12:05.222Z,3.53
2023-04-02T02:14:33.282Z,4.10
2023-04-02T02:17:04.018Z,4.38
2023-04-02T02:19:39.042Z,4.85
2023-04-02T02:22:36.128Z,4.55
2023-04-02T02:25:16.872Z,2.90
2023-04-02T02:30:51.460Z,4.63
2023-04-02T02:33:47.240Z,3.80
2023-04-02T02:36:50.689Z,4.20
2023-04-02T02:39:44.549Z,3.17
2023-04-02T02:42:39.821Z,4.03
2023-04-02T02:45:18.644Z,3.88
2023-04-02T02:47:48.265Z,4.53
2023-04-02T02:50:33.883Z,4.25
2023-04-02T02:53:22.133Z,3.30
2023-04-02T02:55:56.589Z,5.50
2023-04-02T02:58:33.064Z,5.25
2023-04-02T03:01:10.720Z,5.72
2023-04-02T03:03:40.508Z,4.82
2023-04-02T03:06:16.522Z,5.30
2023-04-02T03:09:13.523Z,6.90
2023-04-02T03:11:54.142Z,9.32
2023-04-02T03:14:44.297Z,10.75
2023-04-02T03:17:33.090Z,10.68
2023-04-02T03:20:27.072Z,13.02
2023-04-02T03:23:09.014Z,11.02
2023-04-02T03:25:57.420Z,13.75
2023-04-02T03:28:31.949Z,14.80
2023-04-02T03:31:31.394Z,11.57
2023-04-02T03:34:15.813Z,12.15
2023-04-02T03:37:16.341Z,16.35
2023-04-02T03:40:04.262Z,15.45
2023-04-02T03:43:06.470Z,15.40
2023-04-02T03:45:54.776Z,14.40
2023-04-02T03:48:48.507Z,13.95
2023-04-02T03:51:46.131Z,18.87
2023-04-02T03:54:16.799Z,19.88
2023-04-02T03:56:47.450Z,18.70
2023-04-02T03:59:50.512Z,14.75
2023-04-02T04:02:33.744Z,17.02
2023-04-02T04:05:05.949Z,18.33
2023-04-02T04:07:41.335Z,16.08
2023-04-02T04:10:17.264Z,22.17
2023-04-02T04:12:48.859Z,15.55
2023-04-02T04:15:53.379Z,15.25
2023-04-02T04:18:49.982Z,14.40
2023-04-02T04:21:31.144Z,18.45
2023-04-02T04:24:21.863Z,12.55
2023-04-02T04:27:11.503Z,12.45
2023-04-02T04:30:07.720Z,10.70
2023-04-02T04:33:05.686Z,7.93
2023-04-02T04:35:45.514Z,10.05
2023-04-02T04:38:44.337Z,11.80
2023-04-02T04:41:42.675Z,11.95
2023-04-02T04:44:46.458Z,11.43
2023-04-02T04:48:02.847Z,11.38
2023-04-02T04:50:41.326Z,12.23
2023-04-02T04:53:20.126Z,12.85
2023-04-02T04:56:16.549Z,9.95
2023-04-02T05:02:23.812Z,13.18
2023-04-02T05:04:53.022Z,15.13
2023-04-02T05:07:36.835Z,15.77
2023-04-02T05:10:37.868Z,13.55
2023-04-02T05:13:29.709Z,16.17
2023-04-02T05:16:23.238Z,14.18
2023-04-02T05:19:19.445Z,12.52
2023-04-02T05:22:07.304Z,15.35
2023-04-02T05:24:51.668Z,15.75
2023-04-02T05:28:11.347Z,15.32
2023-04-02T05:30:54.602Z,15.73
2023-04-02T05:33:34.118Z,14.18
2023-04-02T05:36:11.669Z,17.30
2023-04-02T05:38:47.639Z,13.73
2023-04-02T05:41:31.501Z,16.30
2023-04-02T05:44:29.472Z,15.25
2023-04-02T05:47:29.675Z,13.57
2023-04-02T05:50:30.609Z,15.45
2023-04-02T05:53:37.942Z,15.95
2023-04-02T05:56:48.130Z,14.40
2023-04-02T05:59:38.462Z,13.88
2023-04-02T06:02:36.697Z,15.05
2023-04-02T06:05:16.943Z,15.23
2023-04-02T06:08:03.640Z,16.23
2023-04-02T06:10:41.935Z,14.70
2023-04-02T06:13:16.682Z,13.13
2023-04-02T06:15:47.254Z,17.63
2023-04-02T06:18:26.340Z,13.60
2023-04-02T06:20:55.335Z,17.20
2023-04-02T06:24:00.807Z,16.25
2023-04-02T06:26:42.847Z,13.18
2023-04-02T06:29:39.787Z,13.40
2023-04-02T06:32:12.441Z,16.55
2023-04-02T06:34:43.190Z,15.90
2023-04-02T06:37:40.183Z,14.43
2023-04-02T06:40:45.419Z,18.85
2023-04-02T06:43:58.414Z,19.30
2023-04-02T06:47:13.385Z,17.20
2023-04-02T06:49:52.738Z,22.67
2023-04-02T06:52:50.952Z,17.48
2023-04-02T06:55:35.732Z,17.65
2023-04-02T06:58:03.326Z,22.65
2023-04-02T07:00:43.860Z,20.90
2023-04-02T07:03:31.534Z,19.27
2023-04-02T07:06:04.271Z,17.65
2023-04-02T07:08:33.594Z,17.83
2023-04-02T07:11:00.954Z,18.88
2023-04-02T07:13:28.764Z,23.90
2023-04-02T07:15:56.526Z,23.08
2023-04-02T07:18:29.415Z,21.92
2023-04-02T07:20:58.515Z,18.92
2023-04-02T07:23:27.354Z,21.23
2023-04-02T07:25:57.871Z,25.80
2023-04-02T07:28:26.344Z,25.48
2023-04-02T07:30:54.492Z,26.10
2023-04-02T07:33:27.416Z,25.23
2023-04-02T07:38:25.352Z,24.23
2023-04-02T07:40:52.720Z,22.17
2023-04-02T07:43:20.138Z,24.65
2023-04-02T07:45:47.412Z,19.35
2023-04-02T07:48:15.118Z,23.80
2023-04-02T07:50:42.505Z,20.95
2023-04-02T07:53:30.237Z,26.02
2023-04-02T07:56:01.484Z,21.10
2023-04-02T07:58:33.050Z,20.80
2023-04-02T08:01:04.438Z,23.25
2023-04-02T08:03:31.876Z,20.95
2023-04-02T08:05:59.277Z,17.63
2023-04-02T08:08:26.628Z,22.85
2023-04-02T08:10:55.455Z,19.27
2023-04-02T08:13:22.762Z,22.42
2023-04-02T08:15:50.017Z,20.75
2023-04-02T08:18:17.182Z,20.58
2023-04-02T08:20:44.640Z,16.77
2023-04-02T08:23:17.751Z,20.60
2023-04-02T08:25:46.169Z,16.05
2023-04-02T08:30:41.873Z,14.55
2023-04-02T08:33:09.325Z,18.88
2023-04-02T08:35:36.999Z,18.75
2023-04-02T08:38:04.353Z,21.15
2023-04-02T08:40:43.246Z,18.38
2023-04-02T08:43:41.855Z,19.25
2023-04-02T08:46:30.024Z,19.25
2023-04-02T08:49:03.653Z,19.02
2023-04-02T08:51:36.791Z,19.73
2023-04-02T08:54:23.943Z,20.83
2023-04-02T08:57:25.522Z,16.60
2023-04-02T09:00:26.804Z,18.63
2023-04-02T09:03:14.980Z,16.45
2023-04-02T09:05:44.416Z,20.52
2023-04-02T09:08:33.223Z,8.48
2023-04-02T09:11:27.799Z,14.80
2023-04-02T09:14:03.818Z,18.65
2023-04-02T09:16:56.094Z,18.50
2023-04-02T09:19:33.688Z,14.85
2023-04-02T09:22:20.175Z,17.75
2023-04-02T09:25:00.941Z,12.82
2023-04-02T09:30:41.928Z,14.35
2023-04-02T09:33:09.929Z,15.90
2023-04-02T09:35:57.901Z,13.02
2023-04-02T09:38:30.757Z,16.77
2023-04-02T09:41:06.860Z,14.82
2023-04-02T09:43:39.263Z,13.35
2023-04-02T09:46:23.740Z,13.77
2023-04-02T09:49:00.904Z,12.50
2023-04-02T09:51:34.211Z,15.50
2023-04-02T09:54:04.275Z,16.77
2023-04-02T09:56:39.076Z,15.13
2023-04-02T09:59:21.802Z,14.45
2023-04-02T10:01:55.317Z,13.40
2023-04-02T10:04:48.657Z,12.57
2023-04-02T10:07:39.155Z,12.68
2023-04-02T10:10:43.478Z,14.40
2023-04-02T10:13:29.276Z,12.05
2023-04-02T10:16:12.943Z,13.00
2023-04-02T10:19:20.115Z,10.45
2023-04-02T10:21:49.228Z,10.10
2023-04-02T10:24:18.216Z,9.35
2023-04-02T10:26:50.490Z,8.80
2023-04-02T10:29:55.922Z,10.75
2023-04-02T10:32:32.524Z,9.48
2023-04-02T10:35:56.307Z,8.38
2023-04-02T10:38:42.750Z,11.75
2023-04-02T10:41:36.455Z,9.52
2023-04-02T10:44:44.911Z,9.40
2023-04-02T10:47:49.253Z,10.43
2023-04-02T10:50:51.718Z,11.77
2023-04-02T10:53:29.297Z,10.70
2023-04-02T10:56:05.510Z,10.07
2023-04-02T10:58:57.486Z,13.55
2023-04-02T11:01:31.199Z,11.50
2023-04-02T11:04:16.571Z,10.05
2023-04-02T11:07:07.145Z,12.35
2023-04-02T11:09:47.202Z,13.85
2023-04-02T11:13:33.317Z,8.95
2023-04-02T11:16:00.654Z,13.90
2023-04-02T11:18:36.684Z,9.73
2023-04-02T11:21:44.869Z,11.90
2023-04-02T11:24:56.007Z,8.13
2023-04-02T11:27:36.194Z,10.98
2023-04-02T11:30:27.054Z,8.40
2023-04-02T11:32:56.182Z,12.07
2023-04-02T11:35:39.538Z,12.45
2023-04-02T11:38:10.839Z,14.07
2023-04-02T11:40:55.964Z,14.27
2023-04-02T11:43:37.927Z,16.13
2023-04-02T11:46:16.921Z,17.33
2023-04-02T11:48:44.447Z,19.38
2023-04-02T11:51:21.324Z,18.50
2023-04-02T11:53:52.901Z,18.13
2023-04-02T11:57:21.470Z,15.93
2023-04-02T12:00:32.813Z,17.13
2023-04-02T12:03:33.648Z,17.38
2023-04-02T12:06:50.394Z,17.45
2023-04-02T12:09:24.052Z,14.70
2023-04-02T12:11:54.948Z,16.10
2023-04-02T12:14:48.557Z,14.55
2023-04-02T12:17:39.869Z,16.55
2023-04-02T12:20:10.229Z,18.88
2023-04-02T12:22:50.964Z,18.20
2023-04-02T12:25:21.945Z,17.20
2023-04-02T12:28:23.578Z,22.67
2023-04-02T12:31:02.697Z,19.83
2023-04-02T12:33:37.284Z,18.15
2023-04-02T12:36:10.063Z,16.95
2023-04-02T12:38:56.906Z,16.58
2023-04-02T12:41:33.203Z,15.15
2023-04-02T12:44:30.035Z,17.15
2023-04-02T12:46:58.754Z,16.70
2023-04-02T12:49:39.243Z,19.65
2023-04-02T12:55:06.150Z,16.77
2023-04-02T12:57:39.172Z,16.45
2023-04-02T13:00:21.713Z,19.13
2023-04-02T13:03:03.140Z,16.30
2023-04-02T13:05:43.642Z,15.80
2023-04-02T13:08:31.226Z,15.65
2023-04-02T13:11:04.999Z,17.33
2023-04-02T13:13:37.902Z,15.32
2023-04-02T13:16:10.393Z,16.75
2023-04-02T13:18:40.364Z,16.20
2023-04-02T13:21:28.938Z,14.30
2023-04-02T13:23:56.249Z,15.35
2023-04-02T13:26:28.989Z,13.98
2023-04-02T13:29:00.426Z,13.05
2023-04-02T13:31:30.446Z,12.63
2023-04-02T13:33:58.965Z,11.23
2023-04-02T13:36:29.141Z,14.70
2023-04-02T13:38:57.224Z,12.27
2023-04-02T13:41:37.169Z,11.50
2023-04-02T13:44:04.930Z,14.25
2023-04-02T13:46:34.809Z,11.60
2023-04-02T13:49:02.486Z,11.20
2023-04-02T13:51:40.788Z,11.52
2023-04-02T13:54:23.422Z,8.57
2023-04-02T13:56:50.842Z,8.93
2023-04-02T13:59:18.341Z,8.05
2023-04-02T14:01:47.882Z,8.57
2023-04-02T14:04:26.287Z,6.75
2023-04-02T14:07:32.408Z,7.55
2023-04-02T14:10:46.119Z,6.90
2023-04-02T14:14:06.227Z,5.75
2023-04-02T14:17:26.115Z,8.80
2023-04-02T14:20:42.218Z,7.55
2023-04-02T14:23:42.475Z,5.40
2023-04-02T14:27:07.129Z,6.50
2023-04-02T14:30:02.435Z,5.80
2023-04-02T14:33:16.956Z,7.55
2023-04-02T14:35:49.889Z,7.10
2023-04-02T14:38:31.259Z,7.15
2023-04-02T14:41:29.280Z,5.85
2023-04-02T14:44:06.658Z,5.05
2023-04-02T14:46:38.316Z,5.55
2023-04-02T14:49:34.597Z,4.50
2023-04-02T14:52:06.725Z,4.38
2023-04-02T14:54:45.074Z,4.85
2023-04-02T14:57:33.301Z,5.80
2023-04-02T15:00:29.868Z,5.47
2023-04-02T15:03:44.707Z,5.68
2023-04-02T15:06:32.003Z,6.75
2023-04-02T15:09:28.954Z,5.35
2023-04-02T15:12:24.973Z,4.68
2023-04-02T15:15:11.761Z,5.18
2023-04-02T15:17:39.209Z,4.00
2023-04-02T15:20:19.549Z,4.38
2023-04-02T15:23:04.491Z,4.40
2023-04-02T15:25:58.124Z,3.65
2023-04-02T15:29:06.310Z,4.13
2023-04-02T15:31:36.300Z,3.92
2023-04-02T15:34:31.919Z,2.85
2023-04-02T15:37:13.517Z,5.55
2023-04-02T15:40:20.416Z,3.50
2023-04-02T15:43:06.996Z,2.90
2023-04-02T15:45:56.474Z,3.33
2023-04-02T15:48:55.652Z,3.10
2023-04-02T15:51:48.381Z,3.03
2023-04-02T15:54:37.526Z,3.50
2023-04-02T15:57:41.056Z,2.90
2023-04-02T16:00:30.486Z,4.03
2023-04-02T16:03:30.954Z,4.57
2023-04-02T16:06:32.403Z,3.10
2023-04-02T16:09:27.232Z,3.50
2023-04-02T16:12:18.315Z,3.97
2023-04-02T16:14:49.549Z,3.75
2023-04-02T16:17:32.236Z,4.25
2023-04-02T16:20:30.007Z,4.45
2023-04-02T16:23:12.089Z,5.70
2023-04-02T16:25:57.719Z,5.15
2023-04-02T16:29:03.109Z,6.40
2023-04-02T16:31:46.676Z,3.90
2023-04-02T16:34:40.251Z,3.95
2023-04-02T16:38:00.773Z,4.47
2023-04-02T16:41:07.680Z,4.75
2023-04-02T16:44:26.164Z,5.00
2023-04-02T16:47:40.068Z,5.22
2023-04-02T16:50:55.329Z,6.00
2023-04-02T16:54:12.154Z,6.05
2023-04-02T17:00:08.174Z,6.30
2023-04-02T17:02:44.429Z,4.15
2023-04-02T17:05:53.373Z,5.78
2023-04-02T17:08:52.932Z,3.85
2023-04-02T17:11:47.917Z,5.40
2023-04-02T17:14:36.178Z,5.07
2023-04-02T17:17:05.458Z,4.70
2023-04-02T17:19:33.286Z,4.03
2023-04-02T17:22:06.086Z,5.68
2023-04-02T17:24:44.690Z,8.82
2023-04-02T17:27:26.005Z,5.18
2023-04-02T17:30:01.538Z,5.20
2023-04-02T17:32:33.630Z,7.53
2023-04-02T17:35:20.996Z,4.75
2023-04-02T17:38:05.738Z,6.45
2023-04-02T17:40:54.122Z,5.35
2023-04-02T17:43:50.998Z,4.43
2023-04-02T17:46:52.487Z,5.75
2023-04-02T17:49:39.235Z,7.80
2023-04-02T17:52:32.009Z,4.60
2023-04-02T17:55:24.278Z,6.35
2023-04-02T17:58:18.416Z,6.40
2023-04-02T18:01:36.493Z,5.30
2023-04-02T18:05:25.106Z,6.20
2023-04-02T18:08:43.680Z,6.22
2023-04-02T18:11:47.843Z,6.72
2023-04-02T18:15:02.999Z,6.13
2023-04-02T18:17:52.550Z,8.77
2023-04-02T18:21:01.239Z,6.03
2023-04-02T18:24:33.500Z,8.10
2023-04-02T18:27:59.666Z,6.97
2023-04-02T18:30:54.579Z,7.43
2023-04-02T18:34:06.563Z,5.47
2023-04-02T18:37:18.495Z,8.80
2023-04-02T18:40:35.306Z,6.55
2023-04-02T18:43:40.532Z,6.20
2023-04-02T18:46:40.375Z,7.00
2023-04-02T18:49:35.998Z,8.68
2023-04-02T18:52:16.957Z,8.38
2023-04-02T18:54:57.372Z,9.23
2023-04-02T19:00:15.347Z,10.43
2023-04-02T19:03:26.810Z,9.45
2023-04-02T19:06:15.875Z,8.20
2023-04-02T19:09:13.172Z,10.90
2023-04-02T19:11:40.362Z,8.77
2023-04-02T19:14:21.284Z,9.75
2023-04-02T19:17:02.715Z,7.75
2023-04-02T19:20:28.768Z,17.70
2023-04-02T19:23:20.747Z,10.95
2023-04-02T19:26:33.063Z,11.93
2023-04-02T19:29:45.784Z,8.38
2023-04-02T19:32:49.367Z,9.18
2023-04-02T19:35:47.237Z,14.65
2023-04-02T19:39:13.136Z,11.27
2023-04-02T19:42:16.116Z,10.88
2023-04-02T19:44:50.544Z,15.85
2023-04-02T19:49:46.259Z,10.30
2023-04-02T19:52:13.558Z,9.65
2023-04-02T19:54:40.836Z,10.40
2023-04-02T19:57:08.169Z,10.23
2023-04-02T19:59:35.514Z,11.23
2023-04-02T20:02:06.516Z,7.82
2023-04-02T20:04:33.843Z,10.55
2023-04-02T20:07:01.236Z,9.48
2023-04-02T20:09:29.812Z,9.90
2023-04-02T20:11:56.971Z,9.25
2023-04-02T20:14:24.260Z,8.45
2023-04-02T20:16:51.923Z,13.00
2023-04-02T20:19:19.717Z,9.55
2023-04-02T20:21:46.912Z,7.55
2023-04-02T20:24:14.165Z,10.02
2023-04-02T20:26:41.591Z,7.13
2023-04-02T20:29:08.802Z,11.45
2023-04-02T20:31:36.249Z,9.90
2023-04-02T20:34:05.442Z,11.13
2023-04-02T20:36:32.983Z,12.50
2023-04-02T20:39:07.141Z,11.00
2023-04-02T20:41:34.397Z,12.60
2023-04-02T20:44:02.055Z,14.98
2023-04-02T20:46:29.277Z,11.65
2023-04-02T20:48:56.432Z,11.88
2023-04-02T20:51:23.588Z,13.63
2023-04-02T20:53:50.747Z,14.50
2023-04-02T20:56:18.920Z,11.48
2023-04-02T20:58:46.209Z,18.63
2023-04-02T21:01:29.717Z,14.77
2023-04-02T21:04:04.489Z,11.13
2023-04-02T21:06:37.412Z,16.02
2023-04-02T21:09:17.114Z,11.48
2023-04-02T21:11:44.624Z,14.02
2023-04-02T21:14:11.889Z,15.02
2023-04-02T21:16:41.517Z,11.55
2023-04-02T21:19:10.138Z,12.63
2023-04-02T21:21:40.370Z,11.80
2023-04-02T21:24:09.675Z,11.70
2023-04-02T21:26:40.845Z,10.00
2023-04-02T21:29:08.340Z,10.40
2023-04-02T21:31:40.672Z,13.15
2023-04-02T21:34:13.401Z,12.30
2023-04-02T21:36:47.201Z,11.63
2023-04-02T21:39:22.032Z,10.13
2023-04-02T21:41:52.123Z,13.65
2023-04-02T21:44:24.512Z,12.35
2023-04-02T21:46:53.916Z,9.23
2023-04-02T21:49:23.274Z,9.13
2023-04-02T21:51:56.811Z,12.20
2023-04-02T21:54:24.012Z,12.23
2023-04-02T21:56:51.424Z,11.10
2023-04-02T21:59:19.222Z,10.88
2023-04-02T22:01:50.995Z,11.88
2023-04-02T22:04:23.511Z,11.32
2023-04-02T22:06:52.826Z,10.77
2023-04-02T22:09:24.992Z,11.68
2023-04-02T22:11:59.041Z,11.70
2023-04-02T22:14:27.528Z,10.85
2023-04-02T22:16:55.180Z,11.15
2023-04-02T22:19:22.594Z,11.13
2023-04-02T22:21:50.130Z,11.20
2023-04-02T22:24:18.893Z,12.15
2023-04-02T22:26:47.011Z,11.23
2023-04-02T22:29:14.762Z,12.85
2023-04-02T22:31:42.177Z,13.02
2023-04-02T22:34:09.534Z,11.40
2023-04-02T22:36:37.022Z,12.18
2023-04-02T22:39:06.753Z,9.90
2023-04-02T22:41:34.107Z,11.50
2023-04-02T22:44:02.806Z,12.10
2023-04-02T22:46:30.953Z,13.90
2023-04-02T22:48:58.859Z,12.75
2023-04-02T22:51:27.985Z,12.77
2023-04-02T22:53:56.693Z,10.25
2023-04-02T22:56:32.155Z,13.65
2023-04-02T22:58:59.903Z,13.38
2023-04-02T23:01:33.265Z,11.35
2023-04-02T23:04:01.503Z,11.98
2023-04-02T23:06:29.462Z,10.85
2023-04-02T23:08:56.969Z,12.65
2023-04-02T23:11:27.654Z,13.55
2023-04-02T23:13:57.860Z,12.48
2023-04-02T23:16:29.312Z,12.55
2023-04-02T23:18:57.278Z,11.30
2023-04-02T23:21:25.541Z,11.43
2023-04-02T23:23:53.033Z,12.60
2023-04-02T23:26:31.232Z,12.63
2023-04-02T23:29:00.324Z,12.25
2023-04-02T23:31:28.253Z,11.27
2023-04-02T23:33:55.765Z,14.10
2023-04-02T23:36:26.895Z,10.82
2023-04-02T23:38:59.684Z,11.95
2023-04-02T23:41:28.953Z,11.68
2023-04-02T23:43:58.136Z,13.45
2023-04-02T23:46:26.223Z,13.93
2023-04-02T23:48:54.951Z,12.35
2023-04-02T23:51:24.104Z,11.88
2023-04-02T23:53:53.484Z,11.35
2023-04-02T23:56:21.755Z,13.85
2023-04-02T23:58:50.676Z,11.50
